Time;durP1;ratioP1;P1;durP2;ratioP2;P2;SDS_P1;SDS_P2;PMS_P1;PMS_P2;Temp;Humidity;BMP_temperature;BMP_pressure;BME280_temperature;BME280_humidity;BME280_pressure;Samples;Min_cycle;Max_cycle;Signal;HPM_P1;HPM_P2
2022/05/19 00:00:18;;;;;;;;;;;26.40;30.50;;;;;;648830;30;932;-91
2022/05/19 00:01:06;;;;;;;;;;;26.30;30.20;;;;;;652479;30;1262;-90
2022/05/19 00:01:32;;;;;;;;;;;26.30;30.00;;;;;;650624;30;1670;-89
2022/05/19 00:02:13;;;;;;;;;;;26.30;30.00;;;;;;649968;30;1464;-90
2022/05/19 00:02:43;;;;;;;;;;;26.30;29.90;;;;;;650135;30;993;-94
2022/05/19 00:03:29;;;;;;;;;;;26.30;30.00;;;;;;650147;30;1128;-93
2022/05/19 00:04:19;;;;;;;;;;;26.30;30.00;;;;;;652193;30;1052;-89
2022/05/19 00:05:01;;;;;;;;;;;26.30;29.80;;;;;;652386;30;981;-92
2022/05/19 00:05:33;;;;;;;;;;;26.20;29.70;;;;;;652374;30;1471;-95
2022/05/19 00:05:58;;;;;;;;;;;26.20;29.70;;;;;;648499;30;1507;-93
2022/05/19 00:06:22;;;;;;;;;;;26.20;29.70;;;;;;648052;30;1821;-93
2022/05/19 00:07:09;;;;;;;;;;;26.20;29.80;;;;;;645417;30;1444;-91
2022/05/19 00:07:54;;;;;;;;;;;26.20;29.70;;;;;;643835;30;981;-92
2022/05/19 00:08:35;;;;;;;;;;;26.20;29.60;;;;;;645391;30;974;-91
2022/05/19 00:09:16;;;;;;;;;;;26.20;29.70;;;;;;645407;30;1000;-93
2022/05/19 00:09:45;;;;;;;;;;;26.20;29.70;;;;;;645986;30;1003;-89
2022/05/19 00:10:14;;;;;;;;;;;26.20;29.70;;;;;;652497;30;952;-94
2022/05/19 00:10:41;;;;;;;;;;;26.10;29.60;;;;;;651651;30;889;-92
2022/05/19 00:11:04;;;;;;;;;;;26.10;29.60;;;;;;650834;30;1277;-95
2022/05/19 00:11:48;;;;;;;;;;;26.10;29.60;;;;;;650245;30;1197;-93
2022/05/19 00:12:29;;;;;;;;;;;26.10;29.70;;;;;;651071;30;1026;-94
2022/05/19 00:16:17;;;;;;;;;;;26.10;29.50;;;;;;666058;29;1237;-91
2022/05/19 00:17:01;;;;;;;;;;;;;;;;;;;;;
2022/05/19 00:19:24;;;;;;;;;;;26.10;29.60;;;;;;424528;27;1885;-94
2022/05/19 00:19:56;;;;;;;;;;;26.10;29.60;;;;;;663106;29;1359;-95
2022/05/19 00:20:25;;;;;;;;;;;26.10;29.60;;;;;;662813;29;1274;-94
2022/05/19 00:20:57;;;;;;;;;;;26.10;29.60;;;;;;663000;29;1244;-93
2022/05/19 00:21:34;;;;;;;;;;;26.10;29.50;;;;;;663128;29;1049;-95
2022/05/19 00:22:06;;;;;;;;;;;26.10;29.60;;;;;;662995;29;1242;-93
2022/05/19 00:22:32;;;;;;;;;;;26.10;29.50;;;;;;658249;30;1387;-92
2022/05/19 00:23:01;;;;;;;;;;;26.10;29.60;;;;;;660572;29;1406;-94
2022/05/19 00:23:30;;;;;;;;;;;26.00;29.40;;;;;;660499;30;1115;-96
2022/05/19 00:24:11;;;;;;;;;;;26.00;29.30;;;;;;660641;30;1100;-94
2022/05/19 00:24:34;;;;;;;;;;;26.00;29.50;;;;;;660409;30;1168;-93
2022/05/19 00:26:04;;;;;;;;;;;25.90;29.30;;;;;;650494;30;1392;-94
2022/05/19 00:26:30;;;;;;;;;;;26.00;29.50;;;;;;648165;30;1281;-96
2022/05/19 00:26:55;;;;;;;;;;;26.00;29.50;;;;;;650594;30;1289;-93
2022/05/19 00:27:25;;;;;;;;;;;26.00;29.50;;;;;;650602;30;1098;-94
2022/05/19 00:27:48;;;;;;;;;;;26.00;29.40;;;;;;650515;30;1279;-94
2022/05/19 00:28:09;;;;;;;;;;;26.00;29.40;;;;;;650936;30;1163;-94
2022/05/19 00:28:30;;;;;;;;;;;26.00;29.40;;;;;;650294;30;1515;-94
2022/05/19 00:28:52;;;;;;;;;;;26.00;29.40;;;;;;648422;30;1499;-93
2022/05/19 00:29:13;;;;;;;;;;;25.90;29.50;;;;;;646245;30;1291;-93
2022/05/19 00:29:34;;;;;;;;;;;26.00;29.50;;;;;;648170;30;1286;-94
2022/05/19 00:29:55;;;;;;;;;;;26.00;29.50;;;;;;648825;30;1265;-91
2022/05/19 00:30:15;;;;;;;;;;;26.00;29.40;;;;;;651108;30;1362;-92
2022/05/19 00:30:41;;;;;;;;;;;26.00;29.40;;;;;;650605;30;1260;-95
2022/05/19 00:31:02;;;;;;;;;;;26.00;29.60;;;;;;650574;30;1341;-94
2022/05/19 00:31:26;;;;;;;;;;;26.00;29.50;;;;;;649564;30;1288;-94
2022/05/19 00:31:46;;;;;;;;;;;26.00;29.40;;;;;;647030;30;1150;-92
2022/05/19 00:32:09;;;;;;;;;;;26.00;29.50;;;;;;645964;30;1365;-95
2022/05/19 00:32:32;;;;;;;;;;;26.00;29.40;;;;;;647372;30;1422;-96
2022/05/19 00:32:53;;;;;;;;;;;26.00;29.40;;;;;;647213;30;1340;-95
2022/05/19 00:33:21;;;;;;;;;;;26.00;29.40;;;;;;649808;30;1128;-94
2022/05/19 00:33:44;;;;;;;;;;;26.00;29.30;;;;;;651163;30;1350;-91
2022/05/19 00:34:05;;;;;;;;;;;25.90;29.30;;;;;;653637;30;1240;-92
2022/05/19 00:34:27;;;;;;;;;;;25.90;29.30;;;;;;651838;30;1239;-95
2022/05/19 00:34:47;;;;;;;;;;;25.90;29.20;;;;;;649476;30;1361;-91
2022/05/19 00:35:08;;;;;;;;;;;25.90;29.30;;;;;;646964;30;1358;-92
2022/05/19 00:35:31;;;;;;;;;;;25.90;29.30;;;;;;648518;30;1238;-94
2022/05/19 00:35:53;;;;;;;;;;;25.90;29.30;;;;;;649460;30;886;-91
2022/05/19 00:36:15;;;;;;;;;;;26.00;29.30;;;;;;651212;30;1334;-93
2022/05/19 00:36:36;;;;;;;;;;;25.90;29.10;;;;;;652243;30;1160;-93
2022/05/19 00:37:08;;;;;;;;;;;25.90;29.20;;;;;;654465;30;1270;-90
2022/05/19 00:37:34;;;;;;;;;;;25.70;30.00;;;;;;651510;30;1420;-94
2022/05/19 00:37:55;;;;;;;;;;;25.90;29.30;;;;;;653048;30;1437;-96
2022/05/19 00:38:16;;;;;;;;;;;25.90;29.30;;;;;;650989;30;1185;-95
2022/05/19 00:38:40;;;;;;;;;;;25.90;29.10;;;;;;650943;30;1230;-95
2022/05/19 00:39:10;;;;;;;;;;;25.90;29.10;;;;;;653667;30;1348;-94
2022/05/19 00:39:39;;;;;;;;;;;25.90;29.30;;;;;;653292;30;1586;-96
2022/05/19 00:40:04;;;;;;;;;;;26.40;30.30;;;;;;653824;30;1249;-96
2022/05/19 00:40:38;;;;;;;;;;;26.10;29.60;;;;;;652967;30;1454;-93
2022/05/19 00:41:04;;;;;;;;;;;25.90;29.20;;;;;;651742;30;1246;-96
2022/05/19 00:41:28;;;;;;;;;;;26.30;30.50;;;;;;649548;30;1452;-94
2022/05/19 00:42:51;;;;;;;;;;;25.90;29.20;;;;;;650873;30;1105;-91
2022/05/19 00:43:25;;;;;;;;;;;25.90;29.30;;;;;;651446;30;1224;-93
2022/05/19 00:44:03;;;;;;;;;;;25.90;29.20;;;;;;646999;30;1257;-90
2022/05/19 00:44:27;;;;;;;;;;;25.90;29.10;;;;;;648565;30;1227;-94
2022/05/19 00:44:57;;;;;;;;;;;25.90;29.20;;;;;;649168;30;1257;-94
2022/05/19 00:45:24;;;;;;;;;;;25.90;29.40;;;;;;646040;30;1354;-93
2022/05/19 00:46:05;;;;;;;;;;;;;;;;;;;;;
2022/05/19 00:46:48;;;;;;;;;;;25.80;29.10;;;;;;646952;30;1174;-96
2022/05/19 00:47:49;;;;;;;;;;;;;;;;;;;;;
2022/05/19 00:48:19;;;;;;;;;;;25.90;29.40;;;;;;640110;31;1340;-94
2022/05/19 00:49:00;;;;;;;;;;;25.70;29.10;;;;;;638098;31;1427;-96
2022/05/19 00:49:30;;;;;;;;;;;25.80;29.00;;;;;;634322;31;1235;-95
2022/05/19 00:49:51;;;;;;;;;;;25.80;29.00;;;;;;632308;31;1460;-91
2022/05/19 00:50:31;;;;;;;;;;;25.70;29.00;;;;;;634957;31;1211;-93
2022/05/19 00:51:06;;;;;;;;;;;25.80;28.90;;;;;;637080;31;1435;-94
2022/05/19 00:51:43;;;;;;;;;;;25.80;28.90;;;;;;639016;30;1327;-93
2022/05/19 00:52:08;;;;;;;;;;;25.80;29.00;;;;;;639973;30;1234;-95
2022/05/19 00:52:40;;;;;;;;;;;25.80;29.20;;;;;;638618;31;1298;-93
2022/05/19 00:53:07;;;;;;;;;;;25.80;29.00;;;;;;636615;31;1267;-90
2022/05/19 00:53:46;;;;;;;;;;;;;;;;;;;;;
2022/05/19 00:54:19;;;;;;;;;;;25.80;29.10;;;;;;631969;31;1014;-95
2022/05/19 00:54:46;;;;;;;;;;;25.80;29.00;;;;;;631837;31;1252;-95
2022/05/19 00:55:20;;;;;;;;;;;25.80;29.00;;;;;;631886;31;1212;-94
2022/05/19 00:55:42;;;;;;;;;;;25.80;29.00;;;;;;629679;31;1389;-92
2022/05/19 00:56:07;;;;;;;;;;;25.80;29.00;;;;;;629059;31;1292;-93
2022/05/19 00:56:35;;;;;;;;;;;25.80;29.10;;;;;;630362;31;1267;-96
2022/05/19 00:57:39;;;;;;;;;;;25.80;28.90;;;;;;637534;31;960;-91
2022/05/19 00:58:15;;;;;;;;;;;25.80;28.90;;;;;;638388;31;1716;-92
2022/05/19 00:58:56;;;;;;;;;;;25.80;29.10;;;;;;637890;31;1644;-91
2022/05/19 00:59:24;;;;;;;;;;;25.80;29.00;;;;;;633412;31;1641;-93
2022/05/19 01:00:03;;;;;;;;;;;25.80;29.20;;;;;;631284;31;1339;-92
2022/05/19 01:00:30;;;;;;;;;;;26.90;30.70;;;;;;628909;31;1185;-91
2022/05/19 01:01:11;;;;;;;;;;;25.80;29.20;;;;;;628239;31;1165;-91
2022/05/19 01:01:39;;;;;;;;;;;25.80;29.30;;;;;;627133;31;1384;-90
2022/05/19 01:04:14;;;;;;;;;;;25.90;29.00;;;;;;628586;31;1194;-91
2022/05/19 01:05:00;;;;;;;;;;;25.90;29.10;;;;;;626458;31;1422;-94
2022/05/19 01:05:30;;;;;;;;;;;25.90;29.10;;;;;;630773;31;914;-92
2022/05/19 01:06:02;;;;;;;;;;;25.90;29.00;;;;;;629833;31;1651;-90
2022/05/19 01:08:00;;;;;;;;;;;25.90;28.80;;;;;;665554;29;1755;-93
2022/05/19 01:08:42;;;;;;;;;;;25.90;29.00;;;;;;667171;29;1009;-92
2022/05/19 01:09:05;;;;;;;;;;;25.90;29.00;;;;;;664764;29;1473;-92
2022/05/19 01:09:42;;;;;;;;;;;25.90;28.80;;;;;;663177;29;1058;-89
2022/05/19 01:10:14;;;;;;;;;;;25.90;28.80;;;;;;663846;29;986;-91
2022/05/19 01:10:50;;;;;;;;;;;25.90;28.80;;;;;;664438;29;902;-94
2022/05/19 01:11:27;;;;;;;;;;;25.90;28.80;;;;;;664598;29;1006;-92
2022/05/19 01:12:09;;;;;;;;;;;25.90;28.80;;;;;;667395;29;1063;-94
2022/05/19 01:16:53;;;;;;;;;;;26.00;28.50;;;;;;637909;27;1950;-94
2022/05/19 01:17:18;;;;;;;;;;;26.00;28.50;;;;;;661972;30;1179;-90
2022/05/19 01:18:02;;;;;;;;;;;26.00;28.60;;;;;;662175;30;966;-90
2022/05/19 01:18:38;;;;;;;;;;;26.00;28.80;;;;;;659945;30;1546;-90
2022/05/19 01:19:11;;;;;;;;;;;26.00;28.70;;;;;;657652;30;964;-91
2022/05/19 01:19:45;;;;;;;;;;;26.00;28.50;;;;;;659577;30;1730;-90
2022/05/19 01:20:26;;;;;;;;;;;26.00;28.50;;;;;;661718;30;968;-92
2022/05/19 01:20:59;;;;;;;;;;;;;;;;;;;;;
2022/05/19 01:21:41;;;;;;;;;;;26.00;28.60;;;;;;652104;30;1072;-90
2022/05/19 01:22:57;;;;;;;;;;;;;;;;;;647183;30;1005;-92
2022/05/19 01:24:03;;;;;;;;;;;;;;;;;;;;;
2022/05/19 01:24:38;;;;;;;;;;;25.90;28.30;;;;;;656962;30;1032;-90
2022/05/19 01:25:09;;;;;;;;;;;26.00;28.40;;;;;;654574;30;1439;-91
2022/05/19 01:26:06;;;;;;;;;;;26.00;28.50;;;;;;654573;30;1050;-91
2022/05/19 01:26:47;;;;;;;;;;;26.00;28.40;;;;;;657508;30;1027;-90
2022/05/19 01:27:17;;;;;;;;;;;26.00;28.30;;;;;;656510;30;1311;-89
2022/05/19 01:28:10;;;;;;;;;;;25.90;28.10;;;;;;651007;30;1051;-90
2022/05/19 01:39:11;;;;;;;;;;;26.10;28.00;;;;;;663316;29;1309;-92
2022/05/19 01:39:33;;;;;;;;;;;26.00;28.00;;;;;;665233;29;1210;-93
2022/05/19 01:39:56;;;;;;;;;;;26.00;28.00;;;;;;662674;29;1355;-94
2022/05/19 01:40:23;;;;;;;;;;;26.00;28.10;;;;;;662799;29;1279;-92
2022/05/19 01:40:50;;;;;;;;;;;26.30;29.20;;;;;;662802;29;1422;-91
2022/05/19 01:41:14;;;;;;;;;;;26.00;28.40;;;;;;659960;30;1220;-93
2022/05/19 01:41:43;;;;;;;;;;;25.90;28.30;;;;;;660312;30;1424;-92
2022/05/19 01:42:04;;;;;;;;;;;25.90;28.20;;;;;;660995;29;1278;-92
2022/05/19 01:42:30;;;;;;;;;;;25.90;28.30;;;;;;660148;30;1340;-93
2022/05/19 01:42:57;;;;;;;;;;;25.90;28.30;;;;;;660384;30;1270;-91
2022/05/19 01:43:38;;;;;;;;;;;25.90;28.30;;;;;;660352;30;1266;-92
2022/05/19 01:44:07;;;;;;;;;;;25.90;28.30;;;;;;660400;30;1108;-92
2022/05/19 01:44:54;;;;;;;;;;;25.90;28.30;;;;;;660318;30;1380;-95
2022/05/19 01:45:33;;;;;;;;;;;25.90;28.30;;;;;;656325;30;1430;-90
2022/05/19 01:46:17;;;;;;;;;;;25.90;28.30;;;;;;659413;30;1246;-92
2022/05/19 01:46:43;;;;;;;;;;;25.90;28.30;;;;;;653152;30;1257;-91
2022/05/19 01:47:04;;;;;;;;;;;25.80;28.30;;;;;;661045;29;1225;-95
2022/05/19 01:47:28;;;;;;;;;;;25.90;28.30;;;;;;662687;29;1348;-94
2022/05/19 01:47:55;;;;;;;;;;;25.90;28.30;;;;;;661044;29;1203;-92
2022/05/19 01:48:49;;;;;;;;;;;25.80;28.30;;;;;;661637;30;1200;-91
2022/05/19 01:49:18;;;;;;;;;;;25.90;28.20;;;;;;656494;30;1013;-90
2022/05/19 01:49:58;;;;;;;;;;;25.90;28.30;;;;;;655348;30;1483;-89
2022/05/19 01:50:44;;;;;;;;;;;25.80;28.20;;;;;;656908;30;886;-91
2022/05/19 01:51:23;;;;;;;;;;;25.80;28.30;;;;;;657093;30;1331;-90
2022/05/19 01:53:16;;;;;;;;;;;25.80;28.30;;;;;;649391;30;1177;-91
2022/05/19 01:53:56;;;;;;;;;;;25.80;28.20;;;;;;648200;30;1978;-90
2022/05/19 01:54:43;;;;;;;;;;;25.80;28.20;;;;;;649036;30;999;-89
2022/05/19 01:55:32;;;;;;;;;;;25.80;28.20;;;;;;657514;30;923;-90
2022/05/19 01:56:11;;;;;;;;;;;25.70;28.10;;;;;;656799;30;967;-89
2022/05/19 01:56:51;;;;;;;;;;;25.80;28.20;;;;;;657298;30;1637;-88
2022/05/19 01:57:37;;;;;;;;;;;25.80;28.30;;;;;;655048;30;944;-88
2022/05/19 01:58:17;;;;;;;;;;;25.80;28.30;;;;;;656624;30;990;-88
2022/05/19 01:59:04;;;;;;;;;;;25.80;29.00;;;;;;657082;30;970;-89
2022/05/19 01:59:59;;;;;;;;;;;25.80;28.30;;;;;;655864;30;996;-88
2022/05/19 02:00:29;;;;;;;;;;;25.70;28.20;;;;;;652178;30;1068;-89
2022/05/19 02:00:57;;;;;;;;;;;25.80;28.30;;;;;;649670;30;1162;-89
2022/05/19 02:01:22;;;;;;;;;;;25.70;28.30;;;;;;649601;30;1581;-92
2022/05/19 02:01:52;;;;;;;;;;;25.80;28.30;;;;;;649672;30;1723;-89
2022/05/19 02:02:39;;;;;;;;;;;25.70;28.20;;;;;;652003;30;1616;-90
2022/05/19 02:03:41;;;;;;;;;;;25.70;28.50;;;;;;647121;30;971;-88
2022/05/19 02:04:33;;;;;;;;;;;25.70;28.20;;;;;;648281;30;1362;-90
2022/05/19 02:05:24;;;;;;;;;;;25.80;28.30;;;;;;647175;30;1585;-91
2022/05/19 02:06:06;;;;;;;;;;;25.70;28.20;;;;;;644609;30;1424;-90
2022/05/19 02:06:32;;;;;;;;;;;25.70;28.10;;;;;;642341;30;1312;-88
2022/05/19 02:07:02;;;;;;;;;;;25.70;28.00;;;;;;640225;30;848;-91
2022/05/19 02:07:26;;;;;;;;;;;25.70;28.20;;;;;;642565;30;1768;-89
2022/05/19 02:07:55;;;;;;;;;;;25.70;28.20;;;;;;642310;30;1589;-92
2022/05/19 02:08:23;;;;;;;;;;;25.70;28.10;;;;;;642306;30;1311;-90
2022/05/19 02:08:49;;;;;;;;;;;25.70;28.20;;;;;;642918;30;1476;-95
2022/05/19 02:09:34;;;;;;;;;;;25.70;28.20;;;;;;640189;30;860;-91
2022/05/19 02:09:59;;;;;;;;;;;25.70;28.30;;;;;;640176;31;1606;-89
2022/05/19 02:10:29;;;;;;;;;;;25.70;28.40;;;;;;642697;30;1396;-89
2022/05/19 02:10:53;;;;;;;;;;;25.70;28.20;;;;;;638235;31;1465;-89
2022/05/19 02:11:19;;;;;;;;;;;25.70;28.30;;;;;;638500;31;990;-88
2022/05/19 02:12:00;;;;;;;;;;;25.70;28.20;;;;;;636619;31;1247;-89
2022/05/19 02:12:25;;;;;;;;;;;25.80;28.30;;;;;;633877;31;1819;-87
2022/05/19 02:12:53;;;;;;;;;;;25.70;28.30;;;;;;636787;31;1245;-88
2022/05/19 02:13:19;;;;;;;;;;;25.70;28.20;;;;;;636421;31;1275;-88
2022/05/19 02:13:39;;;;;;;;;;;25.70;28.30;;;;;;638277;30;1944;-89
2022/05/19 02:14:07;;;;;;;;;;;25.70;28.20;;;;;;639184;30;1456;-88
2022/05/19 02:14:43;;;;;;;;;;;25.70;28.20;;;;;;640543;31;1375;-94
2022/05/19 02:15:19;;;;;;;;;;;25.70;28.30;;;;;;636159;31;919;-88
2022/05/19 02:15:54;;;;;;;;;;;25.70;28.20;;;;;;632740;31;1037;-89
2022/05/19 02:16:25;;;;;;;;;;;25.70;28.30;;;;;;633648;31;1087;-87
2022/05/19 02:17:50;;;;;;;;;;;25.70;28.30;;;;;;638335;31;1050;-88
2022/05/19 02:44:08;;;;;;;;;;;25.70;27.80;;;;;;660378;29;1422;-89
2022/05/19 02:44:45;;;;;;;;;;;25.60;27.80;;;;;;661903;29;1247;-88
2022/05/19 02:47:59;;;;;;;;;;;25.60;27.90;;;;;;657079;30;1436;-93
2022/05/19 02:48:23;;;;;;;;;;;25.60;27.90;;;;;;658967;30;1277;-88
2022/05/19 02:49:18;;;;;;;;;;;25.60;27.90;;;;;;658707;30;1063;-89
2022/05/19 02:50:21;;;;;;;;;;;25.60;28.10;;;;;;654522;30;936;-91
2022/05/19 02:51:00;;;;;;;;;;;25.60;27.80;;;;;;654059;30;1076;-88
2022/05/19 02:51:39;;;;;;;;;;;25.60;27.50;;;;;;654099;30;1592;-90
2022/05/19 02:52:08;;;;;;;;;;;25.60;27.70;;;;;;652238;30;1001;-89
2022/05/19 02:52:40;;;;;;;;;;;25.60;27.90;;;;;;654165;30;990;-90
2022/05/19 02:53:26;;;;;;;;;;;25.60;28.00;;;;;;654085;30;1044;-88
2022/05/19 02:54:04;;;;;;;;;;;25.60;27.90;;;;;;651827;30;953;-90
2022/05/19 02:54:29;;;;;;;;;;;25.60;27.90;;;;;;650413;30;1031;-92
2022/05/19 02:55:07;;;;;;;;;;;25.60;27.80;;;;;;651980;30;1001;-94
2022/05/19 02:55:56;;;;;;;;;;;25.60;27.80;;;;;;651813;30;938;-91
2022/05/19 02:56:38;;;;;;;;;;;25.60;27.90;;;;;;651330;30;1023;-88
2022/05/19 02:57:05;;;;;;;;;;;25.60;27.80;;;;;;652546;30;1305;-92
2022/05/19 02:57:47;;;;;;;;;;;25.60;27.80;;;;;;651428;30;884;-92
2022/05/19 02:58:14;;;;;;;;;;;25.60;27.70;;;;;;651288;30;1317;-94
2022/05/19 02:58:34;;;;;;;;;;;25.60;27.70;;;;;;651836;30;1462;-95
2022/05/19 02:59:01;;;;;;;;;;;25.60;27.60;;;;;;651837;30;1086;-95
2022/05/19 02:59:24;;;;;;;;;;;25.60;27.60;;;;;;649330;30;1173;-95
2022/05/19 02:59:47;;;;;;;;;;;25.60;27.80;;;;;;649320;30;1387;-93
2022/05/19 03:00:43;;;;;;;;;;;25.60;27.70;;;;;;647145;30;1344;-95
2022/05/19 03:01:07;;;;;;;;;;;25.60;27.70;;;;;;646099;30;1251;-92
2022/05/19 03:01:30;;;;;;;;;;;25.60;27.70;;;;;;641261;30;1194;-91
2022/05/19 03:01:50;;;;;;;;;;;25.60;27.90;;;;;;639026;31;1127;-93
2022/05/19 03:02:13;;;;;;;;;;;25.50;27.70;;;;;;636695;31;1321;-95
2022/05/19 03:02:34;;;;;;;;;;;25.60;27.90;;;;;;636622;31;1354;-94
2022/05/19 03:02:56;;;;;;;;;;;25.60;27.90;;;;;;634432;31;1298;-92
2022/05/19 03:03:20;;;;;;;;;;;25.60;27.70;;;;;;634362;31;1348;-89
2022/05/19 03:03:43;;;;;;;;;;;25.70;27.70;;;;;;634400;31;1243;-93
2022/05/19 03:04:07;;;;;;;;;;;25.70;27.80;;;;;;636169;31;1258;-93
2022/05/19 03:04:27;;;;;;;;;;;25.70;27.80;;;;;;636741;31;1322;-94
2022/05/19 03:04:48;;;;;;;;;;;25.70;27.90;;;;;;638770;31;1433;-94
2022/05/19 03:05:10;;;;;;;;;;;25.70;27.80;;;;;;642650;30;1320;-93
2022/05/19 03:05:31;;;;;;;;;;;25.70;27.70;;;;;;641426;30;1096;-92
2022/05/19 03:05:52;;;;;;;;;;;25.70;27.70;;;;;;639152;31;1143;-92
2022/05/19 03:06:12;;;;;;;;;;;25.60;27.60;;;;;;638648;31;1390;-94
2022/05/19 03:06:33;;;;;;;;;;;25.70;27.70;;;;;;637112;31;1389;-93
2022/05/19 03:06:54;;;;;;;;;;;25.70;27.70;;;;;;636140;31;1143;-92
2022/05/19 03:07:16;;;;;;;;;;;25.70;27.60;;;;;;636944;31;1370;-91
2022/05/19 03:07:37;;;;;;;;;;;25.70;27.70;;;;;;639688;30;1182;-92
2022/05/19 03:07:58;;;;;;;;;;;25.60;27.50;;;;;;639005;31;1199;-94
2022/05/19 03:08:18;;;;;;;;;;;25.60;27.50;;;;;;636746;31;1210;-92
2022/05/19 03:08:41;;;;;;;;;;;25.60;27.50;;;;;;639494;30;1202;-94
2022/05/19 03:09:04;;;;;;;;;;;25.60;27.70;;;;;;637494;30;1468;-93
2022/05/19 03:09:24;;;;;;;;;;;25.60;27.80;;;;;;634835;31;1246;-95
2022/05/19 03:09:45;;;;;;;;;;;25.60;27.80;;;;;;636720;31;1272;-94
2022/05/19 03:10:06;;;;;;;;;;;25.70;27.70;;;;;;639002;31;1454;-92
2022/05/19 03:10:27;;;;;;;;;;;25.60;27.50;;;;;;639021;31;1276;-95
2022/05/19 03:10:48;;;;;;;;;;;;;;;;;;641337;30;1422;-94
2022/05/19 03:11:09;;;;;;;;;;;25.60;27.50;;;;;;641595;30;1469;-93
2022/05/19 03:11:31;;;;;;;;;;;25.60;27.50;;;;;;641279;30;997;-91
2022/05/19 03:11:53;;;;;;;;;;;25.60;27.40;;;;;;641014;30;1233;-95
2022/05/19 03:12:15;;;;;;;;;;;25.60;27.50;;;;;;640827;30;1185;-93
2022/05/19 03:12:40;;;;;;;;;;;25.60;27.40;;;;;;643991;30;1183;-87
2022/05/19 03:13:03;;;;;;;;;;;25.60;27.50;;;;;;643319;30;1019;-88
2022/05/19 03:13:57;;;;;;;;;;;25.60;27.50;;;;;;641072;31;1952;-91
2022/05/19 03:14:27;;;;;;;;;;;25.60;27.50;;;;;;638429;31;1026;-90
2022/05/19 03:15:16;;;;;;;;;;;25.60;27.50;;;;;;638973;31;1026;-86
2022/05/19 03:15:50;;;;;;;;;;;25.60;27.30;;;;;;640148;31;987;-88
2022/05/19 03:16:37;;;;;;;;;;;25.60;27.60;;;;;;640624;31;1538;-89
2022/05/19 03:17:01;;;;;;;;;;;;;;;;;;640797;30;1064;-90
2022/05/19 03:17:25;;;;;;;;;;;25.60;27.50;;;;;;640890;31;1343;-89
2022/05/19 03:17:58;;;;;;;;;;;25.60;27.40;;;;;;636490;31;1355;-89
2022/05/19 03:18:28;;;;;;;;;;;25.70;27.50;;;;;;633763;31;1229;-90
2022/05/19 03:18:54;;;;;;;;;;;25.60;27.50;;;;;;634163;31;1321;-91
2022/05/19 03:19:50;;;;;;;;;;;25.60;27.50;;;;;;634297;31;1011;-90
2022/05/19 03:20:30;;;;;;;;;;;25.60;27.50;;;;;;636345;31;990;-89
2022/05/19 03:20:59;;;;;;;;;;;25.60;27.40;;;;;;636190;31;946;-89
2022/05/19 03:21:21;;;;;;;;;;;25.60;27.60;;;;;;635660;31;926;-93
2022/05/19 03:21:54;;;;;;;;;;;25.60;27.60;;;;;;637222;31;984;-95
2022/05/19 03:22:31;;;;;;;;;;;25.60;27.70;;;;;;638012;31;1086;-96
2022/05/19 03:23:14;;;;;;;;;;;25.60;27.70;;;;;;637217;31;1067;-90
2022/05/19 03:23:51;;;;;;;;;;;25.60;27.70;;;;;;636990;31;1132;-89
2022/05/19 03:24:14;;;;;;;;;;;25.60;27.60;;;;;;633904;31;1237;-96
2022/05/19 03:24:37;;;;;;;;;;;25.60;27.60;;;;;;631265;31;1432;-93
2022/05/19 03:24:59;;;;;;;;;;;25.60;27.60;;;;;;630457;31;1237;-94
2022/05/19 03:25:28;;;;;;;;;;;25.60;27.70;;;;;;631602;31;1070;-95
2022/05/19 03:25:51;;;;;;;;;;;25.50;27.50;;;;;;629695;31;1756;-93
2022/05/19 03:26:12;;;;;;;;;;;25.50;27.60;;;;;;633791;31;1634;-92
2022/05/19 03:27:25;;;;;;;;;;;25.50;27.60;;;;;;635821;31;966;-89
2022/05/19 03:27:56;;;;;;;;;;;25.60;27.70;;;;;;636177;31;986;-95
2022/05/19 03:28:26;;;;;;;;;;;25.50;27.70;;;;;;633972;31;979;-94
2022/05/19 03:29:20;;;;;;;;;;;25.50;27.50;;;;;;634428;31;917;-93
2022/05/19 03:29:46;;;;;;;;;;;25.50;27.50;;;;;;634173;31;1368;-92
2022/05/19 03:30:09;;;;;;;;;;;25.50;27.50;;;;;;633787;31;1230;-91
2022/05/19 03:30:34;;;;;;;;;;;;;;;;;;635891;31;1170;-89
2022/05/19 03:30:59;;;;;;;;;;;25.50;27.50;;;;;;636001;31;994;-90
2022/05/19 03:31:28;;;;;;;;;;;25.50;27.60;;;;;;636150;31;1415;-89
2022/05/19 03:32:07;;;;;;;;;;;25.50;27.70;;;;;;636286;31;1439;-89
2022/05/19 03:32:36;;;;;;;;;;;25.50;27.50;;;;;;636883;31;982;-89
2022/05/19 03:33:22;;;;;;;;;;;25.40;27.50;;;;;;639220;31;931;-90
2022/05/19 03:34:06;;;;;;;;;;;25.50;27.70;;;;;;641094;31;922;-88
2022/05/19 03:34:32;;;;;;;;;;;25.40;27.50;;;;;;638635;31;950;-91
2022/05/19 03:35:04;;;;;;;;;;;25.50;27.60;;;;;;638737;31;883;-88
2022/05/19 03:35:34;;;;;;;;;;;;;;;;;;636231;31;895;-89
2022/05/19 03:36:12;;;;;;;;;;;25.40;27.70;;;;;;636758;31;953;-89
2022/05/19 03:36:36;;;;;;;;;;;25.50;27.60;;;;;;633004;31;1592;-89
2022/05/19 03:37:19;;;;;;;;;;;25.50;27.60;;;;;;633013;31;1053;-91
2022/05/19 03:37:48;;;;;;;;;;;25.50;27.80;;;;;;634072;31;962;-90
2022/05/19 03:38:26;;;;;;;;;;;25.50;27.70;;;;;;636010;31;937;-88
2022/05/19 03:39:08;;;;;;;;;;;25.50;27.80;;;;;;634303;31;1117;-91
2022/05/19 03:39:31;;;;;;;;;;;25.40;27.70;;;;;;637550;31;1249;-88
2022/05/19 03:39:57;;;;;;;;;;;25.40;27.70;;;;;;636466;31;994;-87
2022/05/19 03:40:24;;;;;;;;;;;25.40;27.70;;;;;;637650;31;1340;-94
2022/05/19 03:41:03;;;;;;;;;;;25.40;27.70;;;;;;639423;30;1211;-96
2022/05/19 03:47:56;;;;;;;;;;;25.50;27.60;;;;;;663976;29;1327;-95
2022/05/19 03:48:17;;;;;;;;;;;25.50;27.50;;;;;;665403;29;1280;-93
2022/05/19 03:48:38;;;;;;;;;;;25.40;27.40;;;;;;663084;29;1306;-95
2022/05/19 03:49:20;;;;;;;;;;;25.40;27.50;;;;;;666115;29;1137;-90
2022/05/19 03:49:41;;;;;;;;;;;25.40;27.50;;;;;;663063;30;1052;-96
2022/05/19 03:50:05;;;;;;;;;;;25.40;27.50;;;;;;661052;30;1428;-95
2022/05/19 03:50:33;;;;;;;;;;;25.40;27.60;;;;;;660864;30;1391;-96
2022/05/19 03:50:54;;;;;;;;;;;25.40;27.60;;;;;;662753;29;1316;-95
2022/05/19 03:51:18;;;;;;;;;;;25.40;27.70;;;;;;662993;29;941;-95
2022/05/19 03:51:42;;;;;;;;;;;25.40;27.80;;;;;;660600;30;1291;-96
2022/05/19 03:52:08;;;;;;;;;;;25.40;27.70;;;;;;660157;30;1481;-96
2022/05/19 03:52:36;;;;;;;;;;;25.30;27.60;;;;;;659977;30;1269;-96
2022/05/19 03:52:58;;;;;;;;;;;25.40;27.60;;;;;;661911;29;1416;-95
2022/05/19 03:53:30;;;;;;;;;;;25.40;27.80;;;;;;660544;30;1346;-96
2022/05/19 03:53:54;;;;;;;;;;;25.40;27.80;;;;;;661016;30;868;-96
2022/05/19 03:54:19;;;;;;;;;;;25.30;27.70;;;;;;661105;29;1463;-95
2022/05/19 03:54:40;;;;;;;;;;;25.30;27.60;;;;;;663490;29;1124;-95
2022/05/19 03:55:05;;;;;;;;;;;25.30;27.70;;;;;;660904;29;1321;-96
2022/05/19 03:55:30;;;;;;;;;;;25.40;27.70;;;;;;661362;29;1351;-96
2022/05/19 03:55:55;;;;;;;;;;;25.30;27.60;;;;;;661193;29;1261;-96
2022/05/19 03:56:19;;;;;;;;;;;25.30;27.60;;;;;;658486;30;1341;-96
2022/05/19 03:56:40;;;;;;;;;;;25.30;27.60;;;;;;655970;30;1262;-95
2022/05/19 03:57:03;;;;;;;;;;;25.40;27.70;;;;;;657976;30;1355;-92
2022/05/19 03:57:27;;;;;;;;;;;25.30;27.70;;;;;;655918;30;1281;-96
2022/05/19 03:57:48;;;;;;;;;;;25.30;27.60;;;;;;658213;30;1319;-96
2022/05/19 03:58:09;;;;;;;;;;;25.30;27.60;;;;;;658728;30;1312;-94
2022/05/19 03:58:38;;;;;;;;;;;25.30;27.70;;;;;;656103;30;1218;-96
2022/05/19 03:59:04;;;;;;;;;;;25.30;27.90;;;;;;653769;30;1365;-96
2022/05/19 03:59:31;;;;;;;;;;;25.30;27.80;;;;;;653942;30;1294;-94
2022/05/19 03:59:57;;;;;;;;;;;25.30;27.70;;;;;;659889;30;1349;-94
2022/05/19 04:00:35;;;;;;;;;;;;;;;;;;;;;
2022/05/19 04:01:40;;;;;;;;;;;25.30;27.60;;;;;;657300;30;1153;-95
2022/05/19 04:02:19;;;;;;;;;;;25.30;27.70;;;;;;659666;30;1337;-96
2022/05/19 04:03:41;;;;;;;;;;;25.30;27.60;;;;;;660447;30;998;-96
2022/05/19 04:04:09;;;;;;;;;;;25.30;27.60;;;;;;655878;30;1237;-95
2022/05/19 04:04:30;;;;;;;;;;;25.30;27.70;;;;;;656183;30;1619;-96
2022/05/19 04:05:05;;;;;;;;;;;25.30;27.70;;;;;;655603;30;1389;-94
2022/05/19 04:05:27;;;;;;;;;;;;;;;;;;653174;30;1790;-91
2022/05/19 04:06:09;;;;;;;;;;;25.30;27.50;;;;;;660620;30;1583;-92
2022/05/19 04:06:51;;;;;;;;;;;25.30;27.60;;;;;;654073;30;1346;-92
2022/05/19 04:07:17;;;;;;;;;;;25.30;27.60;;;;;;654985;30;1250;-95
2022/05/19 04:07:48;;;;;;;;;;;25.30;27.60;;;;;;653848;30;870;-95
2022/05/19 04:08:31;;;;;;;;;;;25.30;27.60;;;;;;657644;30;852;-96
2022/05/19 04:08:59;;;;;;;;;;;25.30;27.70;;;;;;657359;30;1071;-96
2022/05/19 04:09:27;;;;;;;;;;;25.30;27.60;;;;;;654569;30;1013;-96
2022/05/19 04:09:50;;;;;;;;;;;25.30;27.60;;;;;;655116;30;1077;-97
2022/05/19 04:10:20;;;;;;;;;;;25.30;27.60;;;;;;650018;30;1096;-95
2022/05/19 04:11:08;;;;;;;;;;;25.30;27.70;;;;;;652264;30;1000;-96
2022/05/19 04:11:32;;;;;;;;;;;25.30;27.80;;;;;;655232;30;1004;-94
2022/05/19 04:12:21;;;;;;;;;;;25.30;27.80;;;;;;656578;30;873;-95
2022/05/19 04:13:27;;;;;;;;;;;25.30;27.60;;;;;;655169;30;1903;-96
2022/05/19 04:14:14;;;;;;;;;;;25.30;27.70;;;;;;652534;30;1272;-92
2022/05/19 04:15:54;;;;;;;;;;;25.30;27.60;;;;;;665280;24;2754;-96
2022/05/19 04:16:19;;;;;;;;;;;25.30;27.60;;;;;;663647;29;1099;-95